sensor_id;sensor_type;location;lat;lon;timestamp;temperature;humidity
935;DHT22;454;53.254;10.400;2022-10-17T04:01:32;12.10;99.90
935;DHT22;454;53.254;10.400;2022-10-17T04:03:59;12.10;99.90
935;DHT22;454;53.254;10.400;2022-10-17T04:06:26;12.10;99.90
935;DHT22;454;53.254;10.400;2022-10-17T04:08:52;12.10;99.90
935;DHT22;454;53.254;10.400;2022-10-17T04:11:19;12.10;99.90
935;DHT22;454;53.254;10.400;2022-10-17T04:13:46;12.10;99.90
935;DHT22;454;53.254;10.400;2022-10-17T04:16:14;12.00;99.90
935;DHT22;454;53.254;10.400;2022-10-17T04:18:43;12.00;99.90
935;DHT22;454;53.254;10.400;2022-10-17T04:21:11;12.00;99.90
935;DHT22;454;53.254;10.400;2022-10-17T04:23:38;12.00;99.90
935;DHT22;454;53.254;10.400;2022-10-17T04:26:05;12.00;99.90
935;DHT22;454;53.254;10.400;2022-10-17T04:28:32;12.00;99.90
935;DHT22;454;53.254;10.400;2022-10-17T04:31:01;12.00;99.90
935;DHT22;454;53.254;10.400;2022-10-17T04:33:28;12.00;99.90
935;DHT22;454;53.254;10.400;2022-10-17T04:35:57;11.90;99.90
935;DHT22;454;53.254;10.400;2022-10-17T04:38:26;11.90;99.90
935;DHT22;454;53.254;10.400;2022-10-17T04:40:53;11.90;99.90
935;DHT22;454;53.254;10.400;2022-10-17T04:43:19;11.90;99.90
935;DHT22;454;53.254;10.400;2022-10-17T04:45:46;11.90;99.90
935;DHT22;454;53.254;10.400;2022-10-17T04:48:13;11.90;99.90
935;DHT22;454;53.254;10.400;2022-10-17T04:50:39;11.90;99.90
935;DHT22;454;53.254;10.400;2022-10-17T04:53:07;11.80;99.90
935;DHT22;454;53.254;10.400;2022-10-17T04:55:36;11.80;99.90
935;DHT22;454;53.254;10.400;2022-10-17T04:58:03;11.80;99.90
935;DHT22;454;53.254;10.400;2022-10-17T05:00:30;11.80;99.90
935;DHT22;454;53.254;10.400;2022-10-17T05:02:57;11.70;99.90
935;DHT22;454;53.254;10.400;2022-10-17T05:05:24;11.70;99.90
935;DHT22;454;53.254;10.400;2022-10-17T05:07:51;11.70;99.90
935;DHT22;454;53.254;10.400;2022-10-17T05:10:19;11.70;99.90
935;DHT22;454;53.254;10.400;2022-10-17T05:12:46;11.70;99.90
935;DHT22;454;53.254;10.400;2022-10-17T05:15:13;11.70;99.90
935;DHT22;454;53.254;10.400;2022-10-17T05:17:39;11.80;99.90
935;DHT22;454;53.254;10.400;2022-10-17T05:20:07;11.70;99.90
935;DHT22;454;53.254;10.400;2022-10-17T05:22:34;11.80;99.90
935;DHT22;454;53.254;10.400;2022-10-17T05:25:01;11.70;99.90
935;DHT22;454;53.254;10.400;2022-10-17T05:27:29;11.70;99.90
935;DHT22;454;53.254;10.400;2022-10-17T05:29:56;11.70;99.90
935;DHT22;454;53.254;10.400;2022-10-17T05:32:23;11.70;99.90
935;DHT22;454;53.254;10.400;2022-10-17T05:34:49;11.80;99.90
935;DHT22;454;53.254;10.400;2022-10-17T05:37:16;11.80;99.90
935;DHT22;454;53.254;10.400;2022-10-17T05:39:43;11.80;99.90
935;DHT22;454;53.254;10.400;2022-10-17T05:42:09;11.90;99.90
935;DHT22;454;53.254;10.400;2022-10-17T05:44:38;11.90;99.90
935;DHT22;454;53.254;10.400;2022-10-17T05:47:05;11.90;99.90
935;DHT22;454;53.254;10.400;2022-10-17T05:49:32;11.90;99.90
935;DHT22;454;53.254;10.400;2022-10-17T05:51:59;11.90;99.90
935;DHT22;454;53.254;10.400;2022-10-17T05:54:26;11.90;99.90
935;DHT22;454;53.254;10.400;2022-10-17T05:56:53;12.00;99.90
935;DHT22;454;53.254;10.400;2022-10-17T05:59:20;12.00;99.90
935;DHT22;454;53.254;10.400;2022-10-17T06:01:48;12.00;99.90
935;DHT22;454;53.254;10.400;2022-10-17T06:04:15;12.00;99.90
935;DHT22;454;53.254;10.400;2022-10-17T06:06:42;12.00;99.90
935;DHT22;454;53.254;10.400;2022-10-17T06:09:08;12.10;99.90
935;DHT22;454;53.254;10.400;2022-10-17T06:11:36;12.10;99.90
935;DHT22;454;53.254;10.400;2022-10-17T06:14:03;12.10;99.90
935;DHT22;454;53.254;10.400;2022-10-17T06:16:30;12.20;99.90
935;DHT22;454;53.254;10.400;2022-10-17T06:18:58;12.30;99.90
935;DHT22;454;53.254;10.400;2022-10-17T06:21:25;12.30;99.90
935;DHT22;454;53.254;10.400;2022-10-17T06:23:52;12.30;99.90
935;DHT22;454;53.254;10.400;2022-10-17T06:26:19;12.40;99.90
935;DHT22;454;53.254;10.400;2022-10-17T06:28:46;12.40;99.90
935;DHT22;454;53.254;10.400;2022-10-17T06:31:14;12.40;99.90
935;DHT22;454;53.254;10.400;2022-10-17T06:33:41;12.40;99.90
935;DHT22;454;53.254;10.400;2022-10-17T06:36:11;12.40;99.90
935;DHT22;454;53.254;10.400;2022-10-17T06:38:38;12.50;99.90
935;DHT22;454;53.254;10.400;2022-10-17T06:41:07;12.50;99.90
935;DHT22;454;53.254;10.400;2022-10-17T06:43:34;12.50;99.90
935;DHT22;454;53.254;10.400;2022-10-17T06:46:01;12.50;99.90
935;DHT22;454;53.254;10.400;2022-10-17T06:48:27;12.60;99.90
935;DHT22;454;53.254;10.400;2022-10-17T06:50:57;12.70;99.90
935;DHT22;454;53.254;10.400;2022-10-17T06:53:27;12.70;99.90
935;DHT22;454;53.254;10.400;2022-10-17T06:55:54;12.70;99.90
935;DHT22;454;53.254;10.400;2022-10-17T06:58:25;12.80;99.90
935;DHT22;454;53.254;10.400;2022-10-17T07:00:55;12.80;99.90
935;DHT22;454;53.254;10.400;2022-10-17T07:03:23;12.90;99.90
935;DHT22;454;53.254;10.400;2022-10-17T07:05:50;13.00;99.90
935;DHT22;454;53.254;10.400;2022-10-17T07:08:17;13.00;99.90
935;DHT22;454;53.254;10.400;2022-10-17T07:10:46;13.10;99.90
935;DHT22;454;53.254;10.400;2022-10-17T07:13:13;13.10;99.90
935;DHT22;454;53.254;10.400;2022-10-17T07:15:40;13.20;99.90
935;DHT22;454;53.254;10.400;2022-10-17T07:18:07;13.30;99.90
935;DHT22;454;53.254;10.400;2022-10-17T07:20:35;13.30;99.90
935;DHT22;454;53.254;10.400;2022-10-17T07:23:02;13.50;99.90
935;DHT22;454;53.254;10.400;2022-10-17T07:25:29;13.60;99.90
935;DHT22;454;53.254;10.400;2022-10-17T07:27:57;13.70;99.90
935;DHT22;454;53.254;10.400;2022-10-17T07:30:24;13.90;99.90
935;DHT22;454;53.254;10.400;2022-10-17T07:32:52;14.00;99.90
935;DHT22;454;53.254;10.400;2022-10-17T07:35:19;14.10;99.90
935;DHT22;454;53.254;10.400;2022-10-17T07:37:47;14.20;99.90
935;DHT22;454;53.254;10.400;2022-10-17T07:40:14;14.40;99.90
935;DHT22;454;53.254;10.400;2022-10-17T07:42:42;14.50;99.90
935;DHT22;454;53.254;10.400;2022-10-17T07:45:12;14.50;99.90
935;DHT22;454;53.254;10.400;2022-10-17T07:47:43;14.50;99.90
935;DHT22;454;53.254;10.400;2022-10-17T07:50:10;14.60;99.90
935;DHT22;454;53.254;10.400;2022-10-17T07:52:37;14.60;99.90
935;DHT22;454;53.254;10.400;2022-10-17T07:55:05;14.60;99.90
935;DHT22;454;53.254;10.400;2022-10-17T07:57:33;14.60;99.90
935;DHT22;454;53.254;10.400;2022-10-17T08:00:00;14.70;99.90
935;DHT22;454;53.254;10.400;2022-10-17T08:02:29;14.70;99.90
935;DHT22;454;53.254;10.400;2022-10-17T08:04:56;14.70;99.90
935;DHT22;454;53.254;10.400;2022-10-17T08:07:23;14.80;99.90
935;DHT22;454;53.254;10.400;2022-10-17T08:09:50;14.80;99.90
935;DHT22;454;53.254;10.400;2022-10-17T08:12:18;14.90;99.90
935;DHT22;454;53.254;10.400;2022-10-17T08:14:45;15.10;99.90
935;DHT22;454;53.254;10.400;2022-10-17T08:17:12;15.20;99.90
935;DHT22;454;53.254;10.400;2022-10-17T08:19:41;15.40;99.90
935;DHT22;454;53.254;10.400;2022-10-17T08:22:08;15.50;99.90
935;DHT22;454;53.254;10.400;2022-10-17T08:24:36;15.80;99.90
935;DHT22;454;53.254;10.400;2022-10-17T08:27:03;16.00;99.90
935;DHT22;454;53.254;10.400;2022-10-17T08:29:36;16.10;99.90
935;DHT22;454;53.254;10.400;2022-10-17T08:32:03;16.20;99.90
935;DHT22;454;53.254;10.400;2022-10-17T08:34:31;16.30;99.90
935;DHT22;454;53.254;10.400;2022-10-17T08:36:59;16.40;99.90
935;DHT22;454;53.254;10.400;2022-10-17T08:39:27;16.50;99.90
935;DHT22;454;53.254;10.400;2022-10-17T08:42:02;16.60;99.90
935;DHT22;454;53.254;10.400;2022-10-17T08:44:41;16.60;99.90
935;DHT22;454;53.254;10.400;2022-10-17T08:47:14;16.70;99.90
935;DHT22;454;53.254;10.400;2022-10-17T08:49:46;16.70;99.90
935;DHT22;454;53.254;10.400;2022-10-17T08:52:24;16.80;99.90
935;DHT22;454;53.254;10.400;2022-10-17T08:54:55;16.90;99.90
935;DHT22;454;53.254;10.400;2022-10-17T08:57:22;17.00;99.90
935;DHT22;454;53.254;10.400;2022-10-17T08:59:51;17.10;99.90
935;DHT22;454;53.254;10.400;2022-10-17T09:02:38;17.10;99.90
935;DHT22;454;53.254;10.400;2022-10-17T09:05:38;17.10;99.90
935;DHT22;454;53.254;10.400;2022-10-17T09:08:22;17.20;99.90
935;DHT22;454;53.254;10.400;2022-10-17T09:10:56;17.30;99.90
935;DHT22;454;53.254;10.400;2022-10-17T09:13:35;17.30;99.90
935;DHT22;454;53.254;10.400;2022-10-17T09:18:59;17.40;99.90
935;DHT22;454;53.254;10.400;2022-10-17T09:21:36;17.40;99.90
935;DHT22;454;53.254;10.400;2022-10-17T09:24:12;17.50;99.90
935;DHT22;454;53.254;10.400;2022-10-17T09:26:39;17.60;99.90
935;DHT22;454;53.254;10.400;2022-10-17T09:29:17;17.70;99.90
935;DHT22;454;53.254;10.400;2022-10-17T09:31:50;17.70;99.90
935;DHT22;454;53.254;10.400;2022-10-17T09:34:18;17.80;99.90
935;DHT22;454;53.254;10.400;2022-10-17T09:36:45;17.80;99.90
935;DHT22;454;53.254;10.400;2022-10-17T09:39:17;17.90;99.90
935;DHT22;454;53.254;10.400;2022-10-17T09:41:48;18.00;99.90
935;DHT22;454;53.254;10.400;2022-10-17T09:44:19;18.10;99.90
935;DHT22;454;53.254;10.400;2022-10-17T09:46:58;18.20;99.90
935;DHT22;454;53.254;10.400;2022-10-17T09:49:31;18.30;99.90
935;DHT22;454;53.254;10.400;2022-10-17T09:51:59;18.30;99.90
935;DHT22;454;53.254;10.400;2022-10-17T09:54:32;18.40;99.90
935;DHT22;454;53.254;10.400;2022-10-17T09:57:02;18.50;99.90
935;DHT22;454;53.254;10.400;2022-10-17T09:59:31;18.70;99.90
935;DHT22;454;53.254;10.400;2022-10-17T10:02:08;18.80;99.90
935;DHT22;454;53.254;10.400;2022-10-17T10:04:35;18.90;99.90
935;DHT22;454;53.254;10.400;2022-10-17T10:07:03;19.00;99.90
935;DHT22;454;53.254;10.400;2022-10-17T10:09:33;19.10;99.90
935;DHT22;454;53.254;10.400;2022-10-17T10:12:05;19.20;99.90
935;DHT22;454;53.254;10.400;2022-10-17T10:14:34;19.30;99.90
935;DHT22;454;53.254;10.400;2022-10-17T10:17:03;19.50;99.90
935;DHT22;454;53.254;10.400;2022-10-17T10:19:31;19.60;99.90
935;DHT22;454;53.254;10.400;2022-10-17T10:22:00;19.70;99.90
935;DHT22;454;53.254;10.400;2022-10-17T10:24:27;19.80;99.90
935;DHT22;454;53.254;10.400;2022-10-17T10:26:57;19.90;99.90
935;DHT22;454;53.254;10.400;2022-10-17T10:29:28;19.90;99.90
935;DHT22;454;53.254;10.400;2022-10-17T10:32:06;19.90;99.90
935;DHT22;454;53.254;10.400;2022-10-17T10:34:34;20.00;99.90
935;DHT22;454;53.254;10.400;2022-10-17T10:37:03;20.00;99.90
935;DHT22;454;53.254;10.400;2022-10-17T10:39:34;20.10;99.90
935;DHT22;454;53.254;10.400;2022-10-17T10:42:07;20.10;99.90
935;DHT22;454;53.254;10.400;2022-10-17T10:44:35;20.20;99.90
935;DHT22;454;53.254;10.400;2022-10-17T10:47:22;20.30;99.90
935;DHT22;454;53.254;10.400;2022-10-17T10:49:52;20.40;99.90
935;DHT22;454;53.254;10.400;2022-10-17T10:52:26;20.50;99.90
935;DHT22;454;53.254;10.400;2022-10-17T10:55:02;20.50;99.90
935;DHT22;454;53.254;10.400;2022-10-17T10:57:34;20.60;99.90
935;DHT22;454;53.254;10.400;2022-10-17T11:00:07;20.60;99.90
935;DHT22;454;53.254;10.400;2022-10-17T11:02:43;20.60;99.90
935;DHT22;454;53.254;10.400;2022-10-17T11:05:15;20.60;99.90
935;DHT22;454;53.254;10.400;2022-10-17T11:07:48;20.60;99.90
935;DHT22;454;53.254;10.400;2022-10-17T11:10:20;20.70;99.90
935;DHT22;454;53.254;10.400;2022-10-17T11:12:55;20.70;99.90
935;DHT22;454;53.254;10.400;2022-10-17T11:15:28;20.70;99.90
935;DHT22;454;53.254;10.400;2022-10-17T11:17:59;20.70;99.90
935;DHT22;454;53.254;10.400;2022-10-17T11:20:32;20.70;99.90
935;DHT22;454;53.254;10.400;2022-10-17T11:23:09;20.80;99.90
935;DHT22;454;53.254;10.400;2022-10-17T11:25:44;20.80;99.90
935;DHT22;454;53.254;10.400;2022-10-17T11:28:14;20.80;99.90
935;DHT22;454;53.254;10.400;2022-10-17T11:30:45;20.80;99.90
935;DHT22;454;53.254;10.400;2022-10-17T11:33:19;20.90;99.90
935;DHT22;454;53.254;10.400;2022-10-17T11:35:50;20.90;99.90
935;DHT22;454;53.254;10.400;2022-10-17T11:38:24;21.00;99.90
935;DHT22;454;53.254;10.400;2022-10-17T11:40:55;21.10;99.90
935;DHT22;454;53.254;10.400;2022-10-17T11:43:27;21.20;99.90
935;DHT22;454;53.254;10.400;2022-10-17T11:45:59;21.20;99.90
935;DHT22;454;53.254;10.400;2022-10-17T11:48:29;21.20;99.90
935;DHT22;454;53.254;10.400;2022-10-17T11:51:03;21.20;99.90
935;DHT22;454;53.254;10.400;2022-10-17T11:53:33;21.20;99.90
935;DHT22;454;53.254;10.400;2022-10-17T11:56:09;21.10;99.90
935;DHT22;454;53.254;10.400;2022-10-17T11:58:40;21.10;99.90
935;DHT22;454;53.254;10.400;2022-10-17T12:01:16;21.10;99.90
935;DHT22;454;53.254;10.400;2022-10-17T12:04:02;21.10;99.90
935;DHT22;454;53.254;10.400;2022-10-17T12:06:42;21.00;99.90
935;DHT22;454;53.254;10.400;2022-10-17T12:09:16;21.00;99.90
935;DHT22;454;53.254;10.400;2022-10-17T12:11:49;21.00;99.90
935;DHT22;454;53.254;10.400;2022-10-17T12:14:37;21.00;99.90
935;DHT22;454;53.254;10.400;2022-10-17T12:17:05;20.90;99.90
935;DHT22;454;53.254;10.400;2022-10-17T12:19:46;20.90;99.90
935;DHT22;454;53.254;10.400;2022-10-17T12:22:21;20.80;99.90
935;DHT22;454;53.254;10.400;2022-10-17T12:24:55;20.70;99.90
935;DHT22;454;53.254;10.400;2022-10-17T12:27:38;20.70;99.90
935;DHT22;454;53.254;10.400;2022-10-17T12:30:17;20.60;99.90
935;DHT22;454;53.254;10.400;2022-10-17T12:32:57;20.50;99.90
935;DHT22;454;53.254;10.400;2022-10-17T12:35:26;20.50;99.90
935;DHT22;454;53.254;10.400;2022-10-17T12:40:54;20.50;99.90
935;DHT22;454;53.254;10.400;2022-10-17T12:43:49;20.60;99.90
935;DHT22;454;53.254;10.400;2022-10-17T12:46:43;20.70;99.90
935;DHT22;454;53.254;10.400;2022-10-17T12:49:39;20.80;99.90
935;DHT22;454;53.254;10.400;2022-10-17T12:52:25;20.90;99.90
935;DHT22;454;53.254;10.400;2022-10-17T12:55:00;21.00;99.90
935;DHT22;454;53.254;10.400;2022-10-17T12:57:34;21.00;99.90
935;DHT22;454;53.254;10.400;2022-10-17T13:00:11;21.00;99.90
935;DHT22;454;53.254;10.400;2022-10-17T13:02:41;21.00;99.90
935;DHT22;454;53.254;10.400;2022-10-17T13:05:14;21.00;99.90
935;DHT22;454;53.254;10.400;2022-10-17T13:07:43;21.00;99.90
935;DHT22;454;53.254;10.400;2022-10-17T13:10:21;20.90;99.90
935;DHT22;454;53.254;10.400;2022-10-17T13:12:50;20.80;99.90
935;DHT22;454;53.254;10.400;2022-10-17T13:15:19;20.70;99.90
935;DHT22;454;53.254;10.400;2022-10-17T13:17:56;20.70;99.90
935;DHT22;454;53.254;10.400;2022-10-17T13:20:24;20.50;99.90
935;DHT22;454;53.254;10.400;2022-10-17T13:22:53;20.50;99.90
935;DHT22;454;53.254;10.400;2022-10-17T13:25:21;20.50;99.90
935;DHT22;454;53.254;10.400;2022-10-17T13:27:48;20.50;99.90
935;DHT22;454;53.254;10.400;2022-10-17T13:30:24;20.50;99.90
935;DHT22;454;53.254;10.400;2022-10-17T13:32:52;20.50;99.90
935;DHT22;454;53.254;10.400;2022-10-17T13:35:26;20.40;99.90
935;DHT22;454;53.254;10.400;2022-10-17T13:37:53;20.30;99.90
935;DHT22;454;53.254;10.400;2022-10-17T13:40:23;20.30;99.90
935;DHT22;454;53.254;10.400;2022-10-17T13:42:51;20.30;99.90
935;DHT22;454;53.254;10.400;2022-10-17T13:45:24;20.30;99.90
935;DHT22;454;53.254;10.400;2022-10-17T13:47:53;20.30;99.90
935;DHT22;454;53.254;10.400;2022-10-17T13:50:27;20.30;99.90
935;DHT22;454;53.254;10.400;2022-10-17T13:53:14;20.20;99.90
935;DHT22;454;53.254;10.400;2022-10-17T13:55:56;20.20;99.90
935;DHT22;454;53.254;10.400;2022-10-17T13:58:24;20.10;99.90
935;DHT22;454;53.254;10.400;2022-10-17T14:00:52;20.10;99.90
935;DHT22;454;53.254;10.400;2022-10-17T14:03:20;20.00;99.90
935;DHT22;454;53.254;10.400;2022-10-17T14:06:07;20.00;99.90
935;DHT22;454;53.254;10.400;2022-10-17T14:08:35;20.00;99.90
935;DHT22;454;53.254;10.400;2022-10-17T14:11:12;20.00;99.90
935;DHT22;454;53.254;10.400;2022-10-17T14:13:40;19.90;99.90
935;DHT22;454;53.254;10.400;2022-10-17T14:16:08;19.90;99.90
935;DHT22;454;53.254;10.400;2022-10-17T14:18:36;19.90;99.90
935;DHT22;454;53.254;10.400;2022-10-17T14:21:06;19.90;99.90
935;DHT22;454;53.254;10.400;2022-10-17T14:23:38;19.80;99.90
935;DHT22;454;53.254;10.400;2022-10-17T14:26:11;19.80;99.90
935;DHT22;454;53.254;10.400;2022-10-17T14:28:39;19.70;99.90
935;DHT22;454;53.254;10.400;2022-10-17T14:31:20;19.70;99.90
935;DHT22;454;53.254;10.400;2022-10-17T14:33:50;19.70;99.90
935;DHT22;454;53.254;10.400;2022-10-17T14:36:19;19.60;99.90
935;DHT22;454;53.254;10.400;2022-10-17T14:38:50;19.60;99.90
935;DHT22;454;53.254;10.400;2022-10-17T14:41:22;19.60;99.90
935;DHT22;454;53.254;10.400;2022-10-17T14:43:54;19.60;99.90
935;DHT22;454;53.254;10.400;2022-10-17T14:46:21;19.60;99.90
935;DHT22;454;53.254;10.400;2022-10-17T14:48:57;19.60;99.90
935;DHT22;454;53.254;10.400;2022-10-17T14:51:28;19.50;99.90
935;DHT22;454;53.254;10.400;2022-10-17T14:54:04;19.60;99.90
935;DHT22;454;53.254;10.400;2022-10-17T14:56:38;19.50;99.90
935;DHT22;454;53.254;10.400;2022-10-17T14:59:05;19.50;99.90
935;DHT22;454;53.254;10.400;2022-10-17T15:01:33;19.50;99.90
935;DHT22;454;53.254;10.400;2022-10-17T15:03:59;19.50;99.90
935;DHT22;454;53.254;10.400;2022-10-17T15:06:29;19.50;99.90
935;DHT22;454;53.254;10.400;2022-10-17T15:08:56;19.50;99.90
935;DHT22;454;53.254;10.400;2022-10-17T15:11:23;19.50;99.90
935;DHT22;454;53.254;10.400;2022-10-17T15:13:50;19.50;99.90
935;DHT22;454;53.254;10.400;2022-10-17T15:16:19;19.40;99.90
935;DHT22;454;53.254;10.400;2022-10-17T15:18:46;19.30;99.90
935;DHT22;454;53.254;10.400;2022-10-17T15:21:15;19.30;99.90
935;DHT22;454;53.254;10.400;2022-10-17T15:23:43;19.30;99.90
935;DHT22;454;53.254;10.400;2022-10-17T15:26:15;19.20;99.90
935;DHT22;454;53.254;10.400;2022-10-17T15:28:42;19.20;99.90
935;DHT22;454;53.254;10.400;2022-10-17T15:31:14;19.10;99.90
935;DHT22;454;53.254;10.400;2022-10-17T15:33:42;19.00;99.90
935;DHT22;454;53.254;10.400;2022-10-17T15:36:21;18.90;99.90
935;DHT22;454;53.254;10.400;2022-10-17T15:38:50;18.90;99.90
935;DHT22;454;53.254;10.400;2022-10-17T15:41:17;18.80;99.90
935;DHT22;454;53.254;10.400;2022-10-17T15:43:45;18.70;99.90
935;DHT22;454;53.254;10.400;2022-10-17T15:46:14;18.70;99.90
935;DHT22;454;53.254;10.400;2022-10-17T15:48:42;18.70;99.90
935;DHT22;454;53.254;10.400;2022-10-17T15:51:09;18.60;99.90
935;DHT22;454;53.254;10.400;2022-10-17T15:53:36;18.50;99.90
935;DHT22;454;53.254;10.400;2022-10-17T15:56:05;18.40;99.90
935;DHT22;454;53.254;10.400;2022-10-17T15:58:35;18.40;99.90
935;DHT22;454;53.254;10.400;2022-10-17T16:01:04;18.40;99.90
935;DHT22;454;53.254;10.400;2022-10-17T16:03:31;18.30;99.90
935;DHT22;454;53.254;10.400;2022-10-17T16:05:57;18.20;99.90
935;DHT22;454;53.254;10.400;2022-10-17T16:08:24;18.20;99.90
935;DHT22;454;53.254;10.400;2022-10-17T16:10:52;18.10;99.90
935;DHT22;454;53.254;10.400;2022-10-17T16:13:22;18.10;99.90
935;DHT22;454;53.254;10.400;2022-10-17T16:15:49;18.00;99.90
935;DHT22;454;53.254;10.400;2022-10-17T16:18:16;18.00;99.90
935;DHT22;454;53.254;10.400;2022-10-17T16:20:44;18.00;99.90
935;DHT22;454;53.254;10.400;2022-10-17T16:23:12;17.90;99.90
935;DHT22;454;53.254;10.400;2022-10-17T16:25:40;17.90;99.90
935;DHT22;454;53.254;10.400;2022-10-17T16:28:06;17.90;99.90
935;DHT22;454;53.254;10.400;2022-10-17T16:30:40;17.80;99.90
935;DHT22;454;53.254;10.400;2022-10-17T16:33:09;17.80;99.90
935;DHT22;454;53.254;10.400;2022-10-17T16:35:36;17.70;99.90
935;DHT22;454;53.254;10.400;2022-10-17T16:38:03;17.70;99.90
935;DHT22;454;53.254;10.400;2022-10-17T16:40:30;17.70;99.90
935;DHT22;454;53.254;10.400;2022-10-17T16:42:57;17.70;99.90
935;DHT22;454;53.254;10.400;2022-10-17T16:45:23;17.70;99.90
935;DHT22;454;53.254;10.400;2022-10-17T16:47:52;17.60;99.90
935;DHT22;454;53.254;10.400;2022-10-17T16:50:18;17.60;99.90
935;DHT22;454;53.254;10.400;2022-10-17T16:52:45;17.60;99.90
935;DHT22;454;53.254;10.400;2022-10-17T16:55:12;17.60;99.90
935;DHT22;454;53.254;10.400;2022-10-17T16:57:38;17.50;99.90
935;DHT22;454;53.254;10.400;2022-10-17T17:00:07;17.50;99.90
935;DHT22;454;53.254;10.400;2022-10-17T17:02:33;17.50;99.90
935;DHT22;454;53.254;10.400;2022-10-17T17:05:02;17.40;99.90
935;DHT22;454;53.254;10.400;2022-10-17T17:07:29;17.40;99.90
935;DHT22;454;53.254;10.400;2022-10-17T17:09:55;17.40;99.90
935;DHT22;454;53.254;10.400;2022-10-17T17:12:22;17.40;99.90
935;DHT22;454;53.254;10.400;2022-10-17T17:14:49;17.40;99.90
935;DHT22;454;53.254;10.400;2022-10-17T17:17:16;17.40;99.90
935;DHT22;454;53.254;10.400;2022-10-17T17:19:43;17.40;99.90
935;DHT22;454;53.254;10.400;2022-10-17T17:22:12;17.40;99.90
935;DHT22;454;53.254;10.400;2022-10-17T17:24:39;17.40;99.90
935;DHT22;454;53.254;10.400;2022-10-17T17:27:05;17.30;99.90
935;DHT22;454;53.254;10.400;2022-10-17T17:29:32;17.30;99.90
935;DHT22;454;53.254;10.400;2022-10-17T17:31:59;17.30;99.90
935;DHT22;454;53.254;10.400;2022-10-17T17:34:26;17.30;99.90
935;DHT22;454;53.254;10.400;2022-10-17T17:36:52;17.30;99.90
935;DHT22;454;53.254;10.400;2022-10-17T17:39:21;17.30;99.90
935;DHT22;454;53.254;10.400;2022-10-17T17:41:48;17.30;99.90
935;DHT22;454;53.254;10.400;2022-10-17T17:44:15;17.30;99.90
935;DHT22;454;53.254;10.400;2022-10-17T17:46:41;17.30;99.90
935;DHT22;454;53.254;10.400;2022-10-17T17:49:08;17.30;99.90
935;DHT22;454;53.254;10.400;2022-10-17T17:51:36;17.20;99.90
935;DHT22;454;53.254;10.400;2022-10-17T17:54:03;17.20;99.90
935;DHT22;454;53.254;10.400;2022-10-17T17:56:31;17.20;99.90
935;DHT22;454;53.254;10.400;2022-10-17T17:58:59;17.30;99.90
935;DHT22;454;53.254;10.400;2022-10-17T18:01:28;17.20;99.90
935;DHT22;454;53.254;10.400;2022-10-17T18:03:56;17.20;99.90
935;DHT22;454;53.254;10.400;2022-10-17T18:06:24;17.20;99.90
935;DHT22;454;53.254;10.400;2022-10-17T18:08:53;17.20;99.90
935;DHT22;454;53.254;10.400;2022-10-17T18:11:20;17.10;99.90
935;DHT22;454;53.254;10.400;2022-10-17T18:13:52;17.20;99.90
935;DHT22;454;53.254;10.400;2022-10-17T18:16:19;17.10;99.90
935;DHT22;454;53.254;10.400;2022-10-17T18:18:45;17.20;99.90
935;DHT22;454;53.254;10.400;2022-10-17T18:21:12;17.20;99.90
935;DHT22;454;53.254;10.400;2022-10-17T18:23:40;17.20;99.90
935;DHT22;454;53.254;10.400;2022-10-17T18:26:07;17.10;99.90
935;DHT22;454;53.254;10.400;2022-10-17T18:28:36;17.10;99.90
935;DHT22;454;53.254;10.400;2022-10-17T18:31:06;17.10;99.90
935;DHT22;454;53.254;10.400;2022-10-17T18:33:33;17.10;99.90
935;DHT22;454;53.254;10.400;2022-10-17T18:36:03;17.10;99.90
935;DHT22;454;53.254;10.400;2022-10-17T18:38:30;17.10;99.90
935;DHT22;454;53.254;10.400;2022-10-17T18:41:05;17.10;99.90
935;DHT22;454;53.254;10.400;2022-10-17T18:43:33;17.10;99.90
935;DHT22;454;53.254;10.400;2022-10-17T18:46:06;17.10;99.90
935;DHT22;454;53.254;10.400;2022-10-17T18:48:34;17.00;99.90
935;DHT22;454;53.254;10.400;2022-10-17T18:51:03;17.10;99.90
935;DHT22;454;53.254;10.400;2022-10-17T18:53:30;17.00;99.90
935;DHT22;454;53.254;10.400;2022-10-17T18:55:57;17.00;99.90
935;DHT22;454;53.254;10.400;2022-10-17T18:58:24;17.00;99.90
935;DHT22;454;53.254;10.400;2022-10-17T19:00:51;17.00;99.90
935;DHT22;454;53.254;10.400;2022-10-17T19:03:19;17.00;99.90
935;DHT22;454;53.254;10.400;2022-10-17T19:05:46;17.00;99.90
935;DHT22;454;53.254;10.400;2022-10-17T19:08:13;17.10;99.90
935;DHT22;454;53.254;10.400;2022-10-17T19:10:41;17.00;99.90
935;DHT22;454;53.254;10.400;2022-10-17T19:13:09;17.10;99.90
935;DHT22;454;53.254;10.400;2022-10-17T19:15:36;17.10;99.90
935;DHT22;454;53.254;10.400;2022-10-17T19:18:03;17.10;99.90
935;DHT22;454;53.254;10.400;2022-10-17T19:20:31;17.10;99.90
935;DHT22;454;53.254;10.400;2022-10-17T19:22:58;17.10;99.90
935;DHT22;454;53.254;10.400;2022-10-17T19:25:24;17.10;99.90
935;DHT22;454;53.254;10.400;2022-10-17T19:27:53;17.10;99.90
935;DHT22;454;53.254;10.400;2022-10-17T19:30:20;17.10;99.90
935;DHT22;454;53.254;10.400;2022-10-17T19:32:47;17.10;99.90
935;DHT22;454;53.254;10.400;2022-10-17T19:35:14;17.10;99.90
935;DHT22;454;53.254;10.400;2022-10-17T19:37:42;17.10;99.90
935;DHT22;454;53.254;10.400;2022-10-17T19:40:10;17.10;99.90
935;DHT22;454;53.254;10.400;2022-10-17T19:42:37;17.10;99.90
935;DHT22;454;53.254;10.400;2022-10-17T19:45:05;17.10;99.90
935;DHT22;454;53.254;10.400;2022-10-17T19:47:32;17.10;99.90
935;DHT22;454;53.254;10.400;2022-10-17T19:49:59;17.00;99.90
935;DHT22;454;53.254;10.400;2022-10-17T19:52:26;17.00;99.90
935;DHT22;454;53.254;10.400;2022-10-17T19:54:54;17.00;99.90
935;DHT22;454;53.254;10.400;2022-10-17T19:57:21;17.00;99.90
935;DHT22;454;53.254;10.400;2022-10-17T19:59:50;17.00;99.90
935;DHT22;454;53.254;10.400;2022-10-17T20:02:16;17.00;99.90
935;DHT22;454;53.254;10.400;2022-10-17T20:04:43;17.00;99.90
935;DHT22;454;53.254;10.400;2022-10-17T20:07:10;17.00;99.90
935;DHT22;454;53.254;10.400;2022-10-17T20:09:36;17.00;99.90
935;DHT22;454;53.254;10.400;2022-10-17T20:12:05;17.00;99.90
935;DHT22;454;53.254;10.400;2022-10-17T20:14:31;17.00;99.90
935;DHT22;454;53.254;10.400;2022-10-17T20:16:58;16.90;99.90
935;DHT22;454;53.254;10.400;2022-10-17T20:19:25;16.90;99.90
935;DHT22;454;53.254;10.400;2022-10-17T20:21:51;16.90;99.90
935;DHT22;454;53.254;10.400;2022-10-17T20:24:18;16.90;99.90
935;DHT22;454;53.254;10.400;2022-10-17T20:26:45;16.90;99.90
935;DHT22;454;53.254;10.400;2022-10-17T20:29:15;16.80;99.90
935;DHT22;454;53.254;10.400;2022-10-17T20:31:44;16.80;99.90
935;DHT22;454;53.254;10.400;2022-10-17T20:34:12;16.80;99.90
935;DHT22;454;53.254;10.400;2022-10-17T20:36:40;16.80;99.90
935;DHT22;454;53.254;10.400;2022-10-17T20:39:08;16.80;99.90